Time;durP1;ratioP1;P1;durP2;ratioP2;P2;SDS_P1;SDS_P2;PMS_P1;PMS_P2;Temp;Humidity;BMP_temperature;BMP_pressure;BME280_temperature;BME280_humidity;BME280_pressure;Samples;Min_cycle;Max_cycle;Signal;HPM_P1;HPM_P2
2023/04/08 00:07:51;;;;;;;2.40;1.20;;;;;;;5.06;100.00;98011.16;18298758;32;20070;-57
2023/04/08 00:17:54;;;;;;;2.40;1.40;;;;;;;5.06;100.00;98003.13;18297205;32;20046;-58
2023/04/08 00:27:56;;;;;;;3.73;1.30;;;;;;;4.94;100.00;97996.87;18271211;32;20058;-58
2023/04/08 00:38:00;;;;;;;2.80;1.40;;;;;;;4.61;100.00;97983.91;18296614;32;20097;-58
2023/04/08 00:48:04;;;;;;;3.17;1.50;;;;;;;4.14;100.00;97987.03;18282547;32;20058;-58
2023/04/08 00:58:07;;;;;;;2.57;1.33;;;;;;;3.70;100.00;97976.31;18295749;32;20446;-57
2023/04/08 01:08:10;;;;;;;3.30;1.50;;;;;;;3.37;100.00;97983.56;18295478;32;20080;-58
2023/04/08 01:18:15;;;;;;;3.00;1.47;;;;;;;3.17;100.00;97996.22;18295255;32;20465;-58
2023/04/08 01:28:20;;;;;;;1.90;1.53;;;;;;;3.05;100.00;97996.87;18294161;32;20077;-58
2023/04/08 01:38:25;;;;;;;1.30;1.10;;;;;;;2.84;100.00;98005.22;18293990;32;20073;-58
2023/04/08 01:48:28;;;;;;;;;;;;;;;2.64;100.00;97998.06;18294436;32;20077;-58
2023/04/08 01:58:41;;;;;;;1.27;0.97;;;;;;;2.48;100.00;98003.87;18280065;32;19997;-58
2023/04/08 02:08:43;;;;;;;1.30;1.00;;;;;;;2.45;100.00;98001.63;18293246;32;20373;-58
2023/04/08 02:18:57;;;;;;;1.03;0.80;;;;;;;2.47;100.00;97999.59;18292619;32;20112;-58
2023/04/08 02:29:02;;;;;;;2.77;1.60;;;;;;;2.71;100.00;98016.75;18292395;32;20085;-58
2023/04/08 02:39:04;;;;;;;4.18;2.37;;;;;;;2.99;100.00;98016.44;18296358;32;20331;-58
2023/04/08 02:49:07;;;;;;;3.80;2.10;;;;;;;2.86;100.00;98019.16;18288366;32;20122;-58
2023/04/08 02:59:09;;;;;;;7.67;2.67;;;;;;;2.71;100.00;98011.41;18301596;32;20475;-58
2023/04/08 03:09:11;;;;;;;4.37;1.80;;;;;;;2.64;100.00;98018.63;18301300;32;20062;-58
2023/04/08 03:19:14;;;;;;;2.17;1.10;;;;;;;2.77;100.00;98015.91;18300875;32;20050;-58
2023/04/08 03:29:16;;;;;;;2.07;1.40;;;;;;;2.90;100.00;98015.03;18300220;32;20058;-58
2023/04/08 03:39:19;;;;;;;1.70;1.10;;;;;;;3.00;100.00;98015.41;18299550;32;20525;-58
2023/04/08 03:49:21;;;;;;;2.20;1.27;;;;;;;3.07;100.00;98015.38;18285545;32;20050;-58
2023/04/08 03:59:24;;;;;;;3.70;1.13;;;;;;;3.03;100.00;98014.16;18285281;32;20442;-58
2023/04/08 04:09:26;;;;;;;2.07;1.07;;;;;;;2.93;100.00;98019.94;18298174;32;20369;-58
2023/04/08 04:19:30;;;;;;;3.37;1.10;;;;;;;2.86;100.00;98025.34;18297807;32;20053;-58
2023/04/08 04:29:32;;;;;;;4.00;1.43;;;;;;;2.82;100.00;98031.28;18283328;32;20066;-58
2023/04/08 04:39:35;;;;;;;2.10;1.30;;;;;;;2.72;100.00;98045.09;18296725;32;20042;-58
2023/04/08 04:49:39;;;;;;;1.70;1.30;;;;;;;2.62;100.00;98034.00;18296277;32;20354;-58
2023/04/08 04:59:41;;;;;;;2.90;1.60;;;;;;;2.48;100.00;98043.91;18295469;32;20069;-58
2023/04/08 05:09:44;;;;;;;1.67;1.00;;;;;;;2.45;100.00;98049.66;18295220;32;20113;-58
2023/04/08 05:19:46;;;;;;;1.73;1.20;;;;;;;2.52;100.00;98055.81;18295147;32;20058;-58
2023/04/08 05:29:48;;;;;;;1.80;1.13;;;;;;;2.68;100.00;98071.38;18294402;32;20057;-58
2023/04/08 05:39:51;;;;;;;2.00;1.37;;;;;;;2.83;100.00;98076.47;18293849;32;20460;-58
2023/04/08 05:49:53;;;;;;;2.90;1.97;;;;;;;3.04;100.00;98078.06;18293932;32;20038;-58
2023/04/08 05:59:55;;;;;;;6.43;4.30;;;;;;;3.20;100.00;98083.97;18293530;32;20446;-58
2023/04/08 06:09:58;;;;;;;3.77;2.50;;;;;;;3.42;100.00;98097.03;18292977;32;20106;-58
2023/04/08 06:20:01;;;;;;;2.73;1.90;;;;;;;3.71;100.00;98107.16;18289981;32;20095;-58
2023/04/08 06:30:03;;;;;;;2.40;1.60;;;;;;;3.91;100.00;98124.94;18303047;32;20072;-57
2023/04/08 06:40:06;;;;;;;2.17;1.60;;;;;;;4.16;100.00;98114.25;18302680;32;20086;-58
2023/04/08 06:50:09;;;;;;;1.93;1.37;;;;;;;4.65;100.00;98119.03;18302281;32;20054;-58
2023/04/08 07:00:12;;;;;;;3.03;1.47;;;;;;;4.79;100.00;98117.03;18301702;32;20374;-58
2023/04/08 07:10:15;;;;;;;2.63;1.90;;;;;;;5.12;100.00;98127.38;18287086;32;20438;-58
2023/04/08 07:20:18;;;;;;;1.90;1.53;;;;;;;5.75;100.00;98133.44;18286650;32;20129;-58
2023/04/08 07:30:21;;;;;;;3.13;2.57;;;;;;;6.21;100.00;98139.22;18286193;32;20068;-58
2023/04/08 07:40:23;;;;;;;4.77;3.37;;;;;;;6.73;100.00;98141.28;18299498;32;20418;-58
2023/04/08 07:50:26;;;;;;;3.40;2.83;;;;;;;7.27;100.00;98147.28;18299765;32;20087;-58
2023/04/08 08:00:30;;;;;;;6.90;4.10;;;;;;;7.93;100.00;98157.78;18285016;32;20464;-58
2023/04/08 08:10:33;;;;;;;7.43;4.07;;;;;;;8.72;100.00;98166.94;18298326;32;20070;-58
2023/04/08 08:20:35;;;;;;;5.40;4.30;;;;;;;9.24;100.00;98163.13;18283792;32;20054;-58
2023/04/08 08:30:38;;;;;;;5.97;4.37;;;;;;;9.48;100.00;98168.28;18283554;32;20074;-58
2023/04/08 08:40:40;;;;;;;5.53;3.70;;;;;;;9.86;100.00;98171.97;18232165;32;20050;-58
2023/04/08 08:50:44;;;;;;;6.30;4.40;;;;;;;10.34;100.00;98181.16;18233849;32;20461;-58
2023/04/08 09:00:47;;;;;;;6.87;4.10;;;;;;;10.67;100.00;98192.00;18232432;32;20063;-58
2023/04/08 09:10:49;;;;;;;6.07;4.10;;;;;;;11.04;100.00;98196.59;18232749;32;20085;-58
2023/04/08 09:20:52;;;;;;;6.43;4.10;;;;;;;11.57;100.00;98193.13;18231315;32;20054;-58
2023/04/08 09:30:56;;;;;;;4.60;3.60;;;;;;;12.14;100.00;98205.84;18231869;32;20043;-58
2023/04/08 09:41:04;;;;;;;6.23;4.63;;;;;;;12.57;93.25;98204.84;18287423;32;20046;-58
2023/04/08 09:51:07;;;;;;;5.13;4.10;;;;;;;12.40;88.04;98200.47;18302068;32;20062;-58
2023/04/08 10:01:13;;;;;;;6.67;4.57;;;;;;;12.73;92.37;98219.22;18304837;32;20058;-58
2023/04/08 10:11:16;;;;;;;5.67;4.20;;;;;;;12.71;91.08;98219.50;18303722;32;20062;-58
2023/04/08 10:21:38;;;;;;;4.90;3.90;;;;;;;12.80;88.25;98225.19;18303655;32;20362;-58
2023/04/08 10:31:41;;;;;;;4.62;3.80;;;;;;;12.63;89.34;98215.41;18289795;32;20440;-58
2023/04/08 10:41:48;;;;;;;5.95;4.37;;;;;;;12.72;90.76;98210.28;18302569;32;20421;-58
2023/04/08 10:51:51;;;;;;;6.55;4.75;;;;;;;13.48;89.55;98205.06;18302311;32;20101;-58
2023/04/08 11:01:54;;;;;;;6.03;3.83;;;;;;;13.50;81.49;98198.28;18286848;32;20058;-57
2023/04/08 11:11:57;;;;;;;5.50;3.87;;;;;;;13.66;79.69;98203.66;18301319;32;20062;-58
2023/04/08 11:22:01;;;;;;;5.07;3.92;;;;;;;13.91;76.01;98205.47;18300499;32;20125;-58
2023/04/08 11:32:04;;;;;;;5.62;4.00;;;;;;;13.80;74.50;98201.97;18299995;32;20108;-58
2023/04/08 11:42:07;;;;;;;6.57;4.25;;;;;;;14.36;75.64;98202.78;18299616;32;20343;-58
2023/04/08 11:52:09;;;;;;;5.15;3.50;;;;;;;14.97;70.92;98196.09;18299043;32;20050;-58
2023/04/08 12:02:12;;;;;;;6.03;4.22;;;;;;;15.25;67.01;98183.59;18285223;32;20058;-58
2023/04/08 12:12:14;;;;;;;7.72;4.72;;;;;;;15.61;65.19;98174.22;18297169;32;20103;-58
2023/04/08 12:22:17;;;;;;;5.57;4.97;;;;;;;15.70;61.24;98177.88;18298107;32;20046;-58
2023/04/08 12:32:20;;;;;;;6.03;4.30;;;;;;;16.10;59.01;98177.69;18283379;32;20475;-58
2023/04/08 12:42:24;;;;;;;6.82;4.97;;;;;;;15.71;60.61;98182.25;18282694;32;20054;-58
2023/04/08 12:52:26;;;;;;;6.55;4.20;;;;;;;15.46;56.95;98175.19;18282514;32;20054;-58
2023/04/08 13:02:29;;;;;;;2.85;2.40;;;;;;;14.89;61.50;98164.03;18296050;32;20460;-58
2023/04/08 13:12:32;;;;;;;3.87;2.70;;;;;;;14.06;57.88;98166.53;18281862;32;20084;-59
2023/04/08 13:22:34;;;;;;;5.70;3.45;;;;;;;14.00;60.12;98163.00;18294519;32;20094;-57
2023/04/08 13:32:36;;;;;;;3.17;2.40;;;;;;;14.14;55.98;98151.50;18280594;32;20111;-56
2023/04/08 13:42:40;;;;;;;3.35;2.50;;;;;;;14.82;58.88;98156.19;18294286;32;20441;-57
2023/04/08 13:52:42;;;;;;;4.43;3.10;;;;;;;15.42;58.84;98158.59;18293472;32;20063;-57
2023/04/08 14:02:45;;;;;;;3.78;2.70;;;;;;;15.35;55.39;98165.50;18293103;32;20080;-57
2023/04/08 14:12:47;;;;;;;4.37;3.00;;;;;;;14.96;56.23;98161.78;18292604;32;20089;-57
2023/04/08 14:22:50;;;;;;;5.32;4.05;;;;;;;14.78;57.31;98149.69;18292371;32;20069;-57
2023/04/08 14:32:52;;;;;;;4.47;2.92;;;;;;;14.47;58.41;98144.50;18293840;32;20481;-57
2023/04/08 14:42:55;;;;;;;3.20;2.60;;;;;;;14.32;60.92;98147.31;18302557;32;20061;-57
2023/04/08 14:52:58;;;;;;;7.78;3.42;;;;;;;14.64;61.24;98148.75;18301862;32;20101;-57
2023/04/08 15:03:00;;;;;;;5.85;3.50;;;;;;;14.24;57.24;98149.53;18301969;32;20050;-57
2023/04/08 15:13:03;;;;;;;4.43;3.47;;;;;;;14.24;62.58;98144.09;18301146;32;20110;-56
2023/04/08 15:23:06;;;;;;;6.30;3.78;;;;;;;14.55;60.90;98145.78;18300888;32;20050;-57
2023/04/08 15:33:09;;;;;;;5.10;3.40;;;;;;;15.07;54.99;98143.44;18286249;32;20094;-57
2023/04/08 15:43:11;;;;;;;3.80;2.97;;;;;;;14.93;56.51;98145.22;18299790;32;20069;-57
2023/04/08 15:53:14;;;;;;;5.80;4.12;;;;;;;14.10;60.02;98132.25;18298996;32;20076;-56
2023/04/08 16:03:17;;;;;;;4.85;3.62;;;;;;;13.33;61.47;98132.56;18298933;32;20384;-57
2023/04/08 16:13:20;;;;;;;4.95;3.83;;;;;;;12.58;65.54;98144.06;18298224;32;20063;-56
2023/04/08 16:23:22;;;;;;;4.80;3.40;;;;;;;12.27;68.20;98139.44;18297447;32;20105;-57
2023/04/08 16:33:34;;;;;;;7.17;3.30;;;;;;;12.06;69.88;98146.75;18283481;32;20067;-56
2023/04/08 16:43:37;;;;;;;3.27;2.13;;;;;;;12.04;70.37;98151.59;18296966;32;20126;-57
2023/04/08 16:53:40;;;;;;;2.90;2.20;;;;;;;11.90;72.07;98161.31;18282377;32;20106;-56
2023/04/08 17:03:42;;;;;;;3.83;2.87;;;;;;;11.78;72.67;98156.91;18282359;32;20084;-57
2023/04/08 17:13:45;;;;;;;2.90;2.40;;;;;;;11.48;75.83;98166.56;18282345;32;20073;-59
2023/04/08 17:23:48;;;;;;;3.23;2.30;;;;;;;11.23;73.71;98169.94;18281067;32;20054;-59
2023/04/08 17:33:52;;;;;;;4.67;2.90;;;;;;;10.94;77.70;98172.19;18294353;32;20069;-59
2023/04/08 17:43:56;;;;;;;5.23;3.23;;;;;;;10.73;85.07;98176.62;18294725;32;20063;-59
2023/04/08 17:53:59;;;;;;;6.00;3.63;;;;;;;10.54;87.40;98181.59;18294008;32;20118;-59
2023/04/08 18:04:04;;;;;;;5.70;3.57;;;;;;;10.34;90.03;98194.66;18293489;32;20054;-59
2023/04/08 18:14:07;;;;;;;3.70;3.17;;;;;;;10.21;89.47;98202.34;18303630;32;20054;-57
2023/04/08 18:24:10;;;;;;;5.13;3.10;;;;;;;10.06;92.90;98217.34;18303581;32;20046;-58
2023/04/08 18:34:12;;;;;;;4.70;2.30;;;;;;;9.86;97.96;98223.31;18303039;32;20091;-59
2023/04/08 18:44:15;;;;;;;3.80;2.40;;;;;;;9.64;100.00;98239.50;18303206;32;20076;-59
2023/04/08 18:54:18;;;;;;;3.53;2.43;;;;;;;9.44;100.00;98246.25;18288744;32;20089;-58
2023/04/08 19:04:20;;;;;;;3.20;1.97;;;;;;;9.26;100.00;98260.00;18301793;32;20114;-59
2023/04/08 19:14:24;;;;;;;3.37;2.20;;;;;;;9.10;100.00;98267.88;18301383;32;20362;-59
2023/04/08 19:24:27;;;;;;;3.30;1.87;;;;;;;8.95;100.00;98268.44;18300374;32;20077;-59
2023/04/08 19:34:29;;;;;;;5.23;3.03;;;;;;;8.84;100.00;98265.81;18300087;32;20062;-59
2023/04/08 19:44:32;;;;;;;3.50;2.80;;;;;;;8.75;100.00;98274.31;18299944;32;20350;-58
2023/04/08 19:54:35;;;;;;;4.03;3.17;;;;;;;8.67;100.00;98277.41;18299693;32;20051;-59
2023/04/08 20:04:37;;;;;;;3.93;2.90;;;;;;;8.55;100.00;98288.25;18298986;32;20054;-58
2023/04/08 20:14:42;;;;;;;5.37;3.57;;;;;;;8.46;100.00;98281.59;18284687;32;20121;-58
2023/04/08 20:24:49;;;;;;;6.07;4.33;;;;;;;8.39;100.00;98278.22;18284348;32;20050;-58
2023/04/08 20:34:51;;;;;;;6.50;4.60;;;;;;;8.32;100.00;98279.16;18282708;32;20050;-58
2023/04/08 20:44:54;;;;;;;9.10;6.43;;;;;;;8.26;100.00;98269.38;18297077;32;20089;-58
2023/04/08 20:54:57;;;;;;;10.40;6.70;;;;;;;8.18;100.00;98269.75;18296410;32;20114;-58
2023/04/08 21:05:00;;;;;;;10.03;6.23;;;;;;;8.10;100.00;98270.94;18295790;32;20070;-58
2023/04/08 21:15:02;;;;;;;10.80;7.30;;;;;;;8.06;100.00;98282.44;18281974;32;20054;-59
2023/04/08 21:25:05;;;;;;;12.33;7.77;;;;;;;7.99;100.00;98274.47;18281202;32;20046;-59
2023/04/08 21:35:08;;;;;;;8.00;6.30;;;;;;;7.90;100.00;98274.03;18294145;32;20110;-58
2023/04/08 21:45:11;;;;;;;7.83;5.83;;;;;;;7.90;100.00;98268.63;18292398;32;20094;-59
2023/04/08 21:55:13;;;;;;;10.97;7.63;;;;;;;7.92;100.00;98271.91;18315133;32;20054;-58
2023/04/08 22:05:16;;;;;;;10.57;7.63;;;;;;;7.85;100.00;98281.19;18314689;32;20417;-58
2023/04/08 22:15:18;;;;;;;9.13;5.63;;;;;;;7.67;100.00;98276.75;18314048;32;20401;-59
2023/04/08 22:25:21;;;;;;;11.37;7.37;;;;;;;7.59;100.00;98276.06;18300211;32;20084;-58
2023/04/08 22:35:23;;;;;;;9.50;6.30;;;;;;;7.58;100.00;98279.00;18313080;32;20073;-59
2023/04/08 22:45:26;;;;;;;7.53;5.13;;;;;;;7.58;100.00;98292.47;18313670;32;20054;-59
2023/04/08 22:55:29;;;;;;;6.33;4.60;;;;;;;7.50;100.00;98279.34;18307745;32;20089;-58
2023/04/08 23:05:32;;;;;;;10.50;6.13;;;;;;;7.41;100.00;98268.94;18302024;32;20057;-57
2023/04/08 23:15:34;;;;;;;9.43;5.40;;;;;;;7.40;100.00;98269.16;18286991;32;20450;-57
2023/04/08 23:25:37;;;;;;;12.80;8.53;;;;;;;7.38;100.00;98265.91;18300999;32;20054;-58
2023/04/08 23:35:39;;;;;;;8.57;6.57;;;;;;;7.47;100.00;98278.75;18286169;32;20369;-58
2023/04/08 23:45:42;;;;;;;9.43;7.40;;;;;;;7.40;100.00;98271.84;18285781;32;20042;-58
2023/04/08 23:55:45;;;;;;;11.30;9.30;;;;;;;7.22;100.00;98278.16;18299251;32;20054;-58
